sensor_id;sensor_type;location;lat;lon;timestamp;P1;durP1;ratioP1;P2;durP2;ratioP2
52041;SDS011;38052;45.944;13.624;2023-02-14T00:01:56;9.73;;;5.53;;
52041;SDS011;38052;45.944;13.624;2023-02-14T00:04:22;11.05;;;5.75;;
52041;SDS011;38052;45.944;13.624;2023-02-14T00:06:49;9.05;;;5.38;;
52041;SDS011;38052;45.944;13.624;2023-02-14T00:09:16;8.15;;;4.30;;
52041;SDS011;38052;45.944;13.624;2023-02-14T00:11:43;9.85;;;5.38;;
52041;SDS011;38052;45.944;13.624;2023-02-14T00:14:10;10.25;;;6.68;;
52041;SDS011;38052;45.944;13.624;2023-02-14T00:16:55;12.27;;;7.25;;
52041;SDS011;38052;45.944;13.624;2023-02-14T00:19:21;10.85;;;6.47;;
52041;SDS011;38052;45.944;13.624;2023-02-14T00:21:48;14.82;;;7.63;;
52041;SDS011;38052;45.944;13.624;2023-02-14T00:24:16;13.48;;;6.82;;
52041;SDS011;38052;45.944;13.624;2023-02-14T00:26:43;11.20;;;7.03;;
52041;SDS011;38052;45.944;13.624;2023-02-14T00:29:10;15.02;;;7.28;;
52041;SDS011;38052;45.944;13.624;2023-02-14T00:31:37;11.15;;;7.05;;
52041;SDS011;38052;45.944;13.624;2023-02-14T00:34:04;12.40;;;7.70;;
52041;SDS011;38052;45.944;13.624;2023-02-14T00:36:31;13.40;;;7.07;;
52041;SDS011;38052;45.944;13.624;2023-02-14T00:38:57;14.60;;;7.25;;
52041;SDS011;38052;45.944;13.624;2023-02-14T00:41:24;9.95;;;6.38;;
52041;SDS011;38052;45.944;13.624;2023-02-14T00:43:51;11.57;;;6.60;;
52041;SDS011;38052;45.944;13.624;2023-02-14T00:46:18;8.88;;;6.05;;
52041;SDS011;38052;45.944;13.624;2023-02-14T00:48:46;10.40;;;6.32;;
52041;SDS011;38052;45.944;13.624;2023-02-14T00:51:13;11.13;;;6.25;;
52041;SDS011;38052;45.944;13.624;2023-02-14T00:53:39;10.30;;;5.97;;
52041;SDS011;38052;45.944;13.624;2023-02-14T00:56:06;11.90;;;5.85;;
52041;SDS011;38052;45.944;13.624;2023-02-14T00:58:33;10.55;;;6.07;;
52041;SDS011;38052;45.944;13.624;2023-02-14T01:00:59;8.57;;;4.65;;
52041;SDS011;38052;45.944;13.624;2023-02-14T01:03:26;10.88;;;5.03;;
52041;SDS011;38052;45.944;13.624;2023-02-14T01:05:52;8.90;;;4.38;;
52041;SDS011;38052;45.944;13.624;2023-02-14T01:08:19;9.02;;;5.05;;
52041;SDS011;38052;45.944;13.624;2023-02-14T01:10:45;9.10;;;5.05;;
52041;SDS011;38052;45.944;13.624;2023-02-14T01:13:12;13.25;;;5.95;;
52041;SDS011;38052;45.944;13.624;2023-02-14T01:15:42;6.47;;;3.90;;
52041;SDS011;38052;45.944;13.624;2023-02-14T01:18:09;20.35;;;5.57;;
52041;SDS011;38052;45.944;13.624;2023-02-14T01:20:36;11.52;;;6.18;;
52041;SDS011;38052;45.944;13.624;2023-02-14T01:23:03;9.15;;;5.22;;
52041;SDS011;38052;45.944;13.624;2023-02-14T01:25:29;11.85;;;6.43;;
52041;SDS011;38052;45.944;13.624;2023-02-14T01:27:56;12.75;;;6.40;;
52041;SDS011;38052;45.944;13.624;2023-02-14T01:30:22;11.27;;;6.70;;
52041;SDS011;38052;45.944;13.624;2023-02-14T01:32:49;10.73;;;7.22;;
52041;SDS011;38052;45.944;13.624;2023-02-14T01:35:16;10.25;;;6.78;;
52041;SDS011;38052;45.944;13.624;2023-02-14T01:37:42;10.93;;;7.15;;
52041;SDS011;38052;45.944;13.624;2023-02-14T01:40:10;10.18;;;6.18;;
52041;SDS011;38052;45.944;13.624;2023-02-14T01:42:37;16.13;;;7.05;;
52041;SDS011;38052;45.944;13.624;2023-02-14T01:45:06;12.35;;;6.45;;
52041;SDS011;38052;45.944;13.624;2023-02-14T01:47:37;12.32;;;6.28;;
52041;SDS011;38052;45.944;13.624;2023-02-14T01:50:10;10.07;;;6.03;;
52041;SDS011;38052;45.944;13.624;2023-02-14T01:52:40;12.30;;;6.05;;
52041;SDS011;38052;45.944;13.624;2023-02-14T01:55:07;8.73;;;5.38;;
52041;SDS011;38052;45.944;13.624;2023-02-14T01:57:36;16.30;;;6.40;;
52041;SDS011;38052;45.944;13.624;2023-02-14T02:00:03;9.50;;;5.78;;
52041;SDS011;38052;45.944;13.624;2023-02-14T02:02:48;11.95;;;5.45;;
52041;SDS011;38052;45.944;13.624;2023-02-14T02:05:14;6.68;;;4.18;;
52041;SDS011;38052;45.944;13.624;2023-02-14T02:07:41;12.98;;;4.40;;
52041;SDS011;38052;45.944;13.624;2023-02-14T02:10:08;9.48;;;5.05;;
52041;SDS011;38052;45.944;13.624;2023-02-14T02:12:35;8.00;;;4.63;;
52041;SDS011;38052;45.944;13.624;2023-02-14T02:15:02;8.98;;;4.95;;
52041;SDS011;38052;45.944;13.624;2023-02-14T02:20:23;8.27;;;5.28;;
52041;SDS011;38052;45.944;13.624;2023-02-14T02:40:57;8.63;;;5.45;;
52041;SDS011;38052;45.944;13.624;2023-02-14T02:43:30;13.07;;;5.93;;
52041;SDS011;38052;45.944;13.624;2023-02-14T02:54:28;9.27;;;5.15;;
52041;SDS011;38052;45.944;13.624;2023-02-14T02:56:57;7.97;;;5.05;;
52041;SDS011;38052;45.944;13.624;2023-02-14T03:04:21;8.05;;;4.80;;
52041;SDS011;38052;45.944;13.624;2023-02-14T03:07:06;10.68;;;5.18;;
52041;SDS011;38052;45.944;13.624;2023-02-14T03:09:52;8.98;;;5.03;;
52041;SDS011;38052;45.944;13.624;2023-02-14T03:17:28;8.65;;;4.93;;
52041;SDS011;38052;45.944;13.624;2023-02-14T03:20:13;12.27;;;5.47;;
52041;SDS011;38052;45.944;13.624;2023-02-14T03:22:42;10.30;;;5.57;;
52041;SDS011;38052;45.944;13.624;2023-02-14T03:27:49;8.82;;;4.32;;
52041;SDS011;38052;45.944;13.624;2023-02-14T03:33:42;7.70;;;4.20;;
52041;SDS011;38052;45.944;13.624;2023-02-14T03:36:09;10.68;;;5.40;;
52041;SDS011;38052;45.944;13.624;2023-02-14T03:38:48;10.57;;;5.22;;
52041;SDS011;38052;45.944;13.624;2023-02-14T03:41:19;9.80;;;5.55;;
52041;SDS011;38052;45.944;13.624;2023-02-14T03:43:50;10.52;;;4.25;;
52041;SDS011;38052;45.944;13.624;2023-02-14T03:48:44;9.13;;;4.38;;
52041;SDS011;38052;45.944;13.624;2023-02-14T03:51:11;10.45;;;4.43;;
52041;SDS011;38052;45.944;13.624;2023-02-14T03:53:39;6.32;;;3.78;;
52041;SDS011;38052;45.944;13.624;2023-02-14T03:58:36;8.40;;;4.55;;
52041;SDS011;38052;45.944;13.624;2023-02-14T04:01:07;7.90;;;4.65;;
52041;SDS011;38052;45.944;13.624;2023-02-14T04:03:37;10.05;;;4.93;;
52041;SDS011;38052;45.944;13.624;2023-02-14T04:06:04;8.05;;;4.03;;
52041;SDS011;38052;45.944;13.624;2023-02-14T04:08:31;6.32;;;3.67;;
52041;SDS011;38052;45.944;13.624;2023-02-14T04:10:58;7.95;;;3.40;;
52041;SDS011;38052;45.944;13.624;2023-02-14T04:13:25;10.15;;;3.35;;
52041;SDS011;38052;45.944;13.624;2023-02-14T04:15:51;8.80;;;4.63;;
52041;SDS011;38052;45.944;13.624;2023-02-14T04:18:18;10.80;;;4.53;;
52041;SDS011;38052;45.944;13.624;2023-02-14T04:21:02;7.88;;;3.20;;
52041;SDS011;38052;45.944;13.624;2023-02-14T04:23:29;9.25;;;4.43;;
52041;SDS011;38052;45.944;13.624;2023-02-14T04:25:55;7.00;;;4.25;;
52041;SDS011;38052;45.944;13.624;2023-02-14T04:28:23;6.22;;;3.90;;
52041;SDS011;38052;45.944;13.624;2023-02-14T04:30:49;7.18;;;4.30;;
52041;SDS011;38052;45.944;13.624;2023-02-14T04:33:16;10.15;;;4.68;;
52041;SDS011;38052;45.944;13.624;2023-02-14T04:35:42;8.55;;;4.72;;
52041;SDS011;38052;45.944;13.624;2023-02-14T04:38:09;10.20;;;4.32;;
52041;SDS011;38052;45.944;13.624;2023-02-14T04:40:35;9.52;;;4.03;;
52041;SDS011;38052;45.944;13.624;2023-02-14T04:43:02;8.13;;;4.15;;
52041;SDS011;38052;45.944;13.624;2023-02-14T04:45:28;9.50;;;4.95;;
52041;SDS011;38052;45.944;13.624;2023-02-14T04:47:55;8.05;;;5.32;;
52041;SDS011;38052;45.944;13.624;2023-02-14T04:50:22;7.78;;;4.30;;
52041;SDS011;38052;45.944;13.624;2023-02-14T04:52:49;9.25;;;5.28;;
52041;SDS011;38052;45.944;13.624;2023-02-14T04:55:16;12.32;;;5.63;;
52041;SDS011;38052;45.944;13.624;2023-02-14T04:57:42;8.93;;;5.13;;
52041;SDS011;38052;45.944;13.624;2023-02-14T05:00:09;11.50;;;5.25;;
52041;SDS011;38052;45.944;13.624;2023-02-14T05:02:36;9.90;;;4.15;;
52041;SDS011;38052;45.944;13.624;2023-02-14T05:05:02;17.02;;;6.15;;
52041;SDS011;38052;45.944;13.624;2023-02-14T05:07:29;9.32;;;5.25;;
52041;SDS011;38052;45.944;13.624;2023-02-14T05:09:55;9.38;;;5.78;;
52041;SDS011;38052;45.944;13.624;2023-02-14T05:12:22;11.05;;;6.68;;
52041;SDS011;38052;45.944;13.624;2023-02-14T05:14:48;9.73;;;6.28;;
52041;SDS011;38052;45.944;13.624;2023-02-14T05:17:14;10.75;;;6.15;;
52041;SDS011;38052;45.944;13.624;2023-02-14T05:19:41;10.05;;;5.78;;
52041;SDS011;38052;45.944;13.624;2023-02-14T05:22:07;12.77;;;6.05;;
52041;SDS011;38052;45.944;13.624;2023-02-14T05:24:34;10.27;;;5.70;;
52041;SDS011;38052;45.944;13.624;2023-02-14T05:27:00;9.43;;;5.43;;
52041;SDS011;38052;45.944;13.624;2023-02-14T05:29:26;10.38;;;5.78;;
52041;SDS011;38052;45.944;13.624;2023-02-14T05:31:53;9.77;;;5.18;;
52041;SDS011;38052;45.944;13.624;2023-02-14T05:34:19;8.93;;;5.22;;
52041;SDS011;38052;45.944;13.624;2023-02-14T05:36:45;10.45;;;5.35;;
52041;SDS011;38052;45.944;13.624;2023-02-14T05:39:11;14.15;;;6.47;;
52041;SDS011;38052;45.944;13.624;2023-02-14T05:41:38;11.00;;;6.28;;
52041;SDS011;38052;45.944;13.624;2023-02-14T05:44:05;10.85;;;5.68;;
52041;SDS011;38052;45.944;13.624;2023-02-14T05:46:32;9.80;;;5.45;;
52041;SDS011;38052;45.944;13.624;2023-02-14T05:48:58;10.00;;;5.63;;
52041;SDS011;38052;45.944;13.624;2023-02-14T05:51:24;12.68;;;6.15;;
52041;SDS011;38052;45.944;13.624;2023-02-14T05:53:51;13.73;;;5.25;;
52041;SDS011;38052;45.944;13.624;2023-02-14T05:56:17;10.27;;;6.00;;
52041;SDS011;38052;45.944;13.624;2023-02-14T05:58:44;11.10;;;5.53;;
52041;SDS011;38052;45.944;13.624;2023-02-14T06:01:10;9.10;;;4.80;;
52041;SDS011;38052;45.944;13.624;2023-02-14T06:03:36;13.38;;;6.10;;
52041;SDS011;38052;45.944;13.624;2023-02-14T06:06:03;12.55;;;5.93;;
52041;SDS011;38052;45.944;13.624;2023-02-14T06:08:29;10.73;;;5.97;;
52041;SDS011;38052;45.944;13.624;2023-02-14T06:10:56;14.88;;;5.88;;
52041;SDS011;38052;45.944;13.624;2023-02-14T06:13:22;11.18;;;6.70;;
52041;SDS011;38052;45.944;13.624;2023-02-14T06:15:48;10.55;;;5.18;;
52041;SDS011;38052;45.944;13.624;2023-02-14T06:18:15;12.95;;;5.78;;
52041;SDS011;38052;45.944;13.624;2023-02-14T06:20:42;14.82;;;5.68;;
52041;SDS011;38052;45.944;13.624;2023-02-14T06:23:08;10.93;;;4.95;;
52041;SDS011;38052;45.944;13.624;2023-02-14T06:25:35;12.80;;;5.60;;
52041;SDS011;38052;45.944;13.624;2023-02-14T06:28:01;10.18;;;5.53;;
52041;SDS011;38052;45.944;13.624;2023-02-14T06:30:28;9.00;;;4.63;;
52041;SDS011;38052;45.944;13.624;2023-02-14T06:32:54;9.77;;;5.57;;
52041;SDS011;38052;45.944;13.624;2023-02-14T06:35:21;11.45;;;5.28;;
52041;SDS011;38052;45.944;13.624;2023-02-14T06:37:47;8.73;;;4.60;;
52041;SDS011;38052;45.944;13.624;2023-02-14T06:40:13;10.90;;;5.57;;
52041;SDS011;38052;45.944;13.624;2023-02-14T06:42:41;10.05;;;4.85;;
52041;SDS011;38052;45.944;13.624;2023-02-14T06:45:07;16.70;;;4.75;;
52041;SDS011;38052;45.944;13.624;2023-02-14T06:47:34;10.05;;;5.18;;
52041;SDS011;38052;45.944;13.624;2023-02-14T06:50:00;8.85;;;4.43;;
52041;SDS011;38052;45.944;13.624;2023-02-14T06:52:29;10.63;;;4.65;;
52041;SDS011;38052;45.944;13.624;2023-02-14T06:54:55;10.02;;;4.63;;
52041;SDS011;38052;45.944;13.624;2023-02-14T06:57:22;12.13;;;5.32;;
52041;SDS011;38052;45.944;13.624;2023-02-14T06:59:48;9.55;;;5.13;;
52041;SDS011;38052;45.944;13.624;2023-02-14T07:02:15;12.65;;;5.65;;
52041;SDS011;38052;45.944;13.624;2023-02-14T07:04:41;9.90;;;5.93;;
52041;SDS011;38052;45.944;13.624;2023-02-14T07:07:08;18.42;;;6.40;;
52041;SDS011;38052;45.944;13.624;2023-02-14T07:09:35;10.23;;;5.22;;
52041;SDS011;38052;45.944;13.624;2023-02-14T07:12:01;10.55;;;5.63;;
52041;SDS011;38052;45.944;13.624;2023-02-14T07:14:28;9.85;;;5.53;;
52041;SDS011;38052;45.944;13.624;2023-02-14T07:16:55;13.65;;;6.35;;
52041;SDS011;38052;45.944;13.624;2023-02-14T07:19:21;12.38;;;6.32;;
52041;SDS011;38052;45.944;13.624;2023-02-14T07:21:47;11.90;;;5.30;;
52041;SDS011;38052;45.944;13.624;2023-02-14T07:24:14;12.52;;;5.78;;
52041;SDS011;38052;45.944;13.624;2023-02-14T07:26:40;16.88;;;5.70;;
52041;SDS011;38052;45.944;13.624;2023-02-14T07:29:07;10.13;;;5.68;;
52041;SDS011;38052;45.944;13.624;2023-02-14T07:31:34;15.48;;;5.38;;
52041;SDS011;38052;45.944;13.624;2023-02-14T07:34:01;11.30;;;4.50;;
52041;SDS011;38052;45.944;13.624;2023-02-14T07:36:27;9.13;;;5.25;;
52041;SDS011;38052;45.944;13.624;2023-02-14T07:38:54;10.38;;;4.72;;
52041;SDS011;38052;45.944;13.624;2023-02-14T07:41:20;11.88;;;5.22;;
52041;SDS011;38052;45.944;13.624;2023-02-14T07:43:47;8.88;;;4.95;;
52041;SDS011;38052;45.944;13.624;2023-02-14T07:46:13;12.82;;;5.88;;
52041;SDS011;38052;45.944;13.624;2023-02-14T07:48:41;10.50;;;5.30;;
52041;SDS011;38052;45.944;13.624;2023-02-14T07:51:08;10.95;;;4.78;;
52041;SDS011;38052;45.944;13.624;2023-02-14T07:53:34;8.98;;;5.05;;
52041;SDS011;38052;45.944;13.624;2023-02-14T07:56:00;16.35;;;6.35;;
52041;SDS011;38052;45.944;13.624;2023-02-14T07:58:26;12.88;;;6.50;;
52041;SDS011;38052;45.944;13.624;2023-02-14T08:00:53;9.75;;;5.57;;
52041;SDS011;38052;45.944;13.624;2023-02-14T08:03:20;8.30;;;5.43;;
52041;SDS011;38052;45.944;13.624;2023-02-14T08:05:47;10.25;;;5.65;;
52041;SDS011;38052;45.944;13.624;2023-02-14T08:08:25;11.95;;;6.75;;
52041;SDS011;38052;45.944;13.624;2023-02-14T08:10:51;11.18;;;6.75;;
52041;SDS011;38052;45.944;13.624;2023-02-14T08:13:17;12.77;;;5.28;;
52041;SDS011;38052;45.944;13.624;2023-02-14T08:15:44;13.23;;;6.45;;
52041;SDS011;38052;45.944;13.624;2023-02-14T08:18:29;13.68;;;6.32;;
52041;SDS011;38052;45.944;13.624;2023-02-14T08:20:56;10.93;;;6.43;;
52041;SDS011;38052;45.944;13.624;2023-02-14T08:23:22;20.10;;;5.63;;
52041;SDS011;38052;45.944;13.624;2023-02-14T08:25:50;11.07;;;6.57;;
52041;SDS011;38052;45.944;13.624;2023-02-14T08:28:16;13.93;;;7.13;;
52041;SDS011;38052;45.944;13.624;2023-02-14T08:30:43;11.98;;;5.90;;
52041;SDS011;38052;45.944;13.624;2023-02-14T08:33:10;9.98;;;5.22;;
52041;SDS011;38052;45.944;13.624;2023-02-14T08:35:36;13.23;;;6.13;;
52041;SDS011;38052;45.944;13.624;2023-02-14T08:38:03;9.43;;;6.47;;
52041;SDS011;38052;45.944;13.624;2023-02-14T08:40:29;14.10;;;6.65;;
52041;SDS011;38052;45.944;13.624;2023-02-14T08:42:56;13.88;;;6.70;;
52041;SDS011;38052;45.944;13.624;2023-02-14T08:45:23;11.85;;;6.15;;
52041;SDS011;38052;45.944;13.624;2023-02-14T08:47:49;10.23;;;6.40;;
52041;SDS011;38052;45.944;13.624;2023-02-14T08:50:16;14.43;;;7.72;;
52041;SDS011;38052;45.944;13.624;2023-02-14T08:52:43;9.77;;;5.78;;
52041;SDS011;38052;45.944;13.624;2023-02-14T08:55:10;9.30;;;5.75;;
52041;SDS011;38052;45.944;13.624;2023-02-14T08:57:37;11.60;;;5.32;;
52041;SDS011;38052;45.944;13.624;2023-02-14T09:00:04;8.25;;;4.80;;
52041;SDS011;38052;45.944;13.624;2023-02-14T09:02:30;8.93;;;4.93;;
52041;SDS011;38052;45.944;13.624;2023-02-14T09:04:57;9.85;;;4.32;;
52041;SDS011;38052;45.944;13.624;2023-02-14T09:07:23;9.30;;;5.18;;
52041;SDS011;38052;45.944;13.624;2023-02-14T09:09:50;7.80;;;4.80;;
52041;SDS011;38052;45.944;13.624;2023-02-14T09:12:17;10.52;;;4.35;;
52041;SDS011;38052;45.944;13.624;2023-02-14T09:14:43;10.27;;;5.18;;
52041;SDS011;38052;45.944;13.624;2023-02-14T09:17:13;7.93;;;4.18;;
52041;SDS011;38052;45.944;13.624;2023-02-14T09:19:40;10.85;;;4.60;;
52041;SDS011;38052;45.944;13.624;2023-02-14T09:22:07;6.88;;;4.93;;
52041;SDS011;38052;45.944;13.624;2023-02-14T09:24:34;7.10;;;4.97;;
52041;SDS011;38052;45.944;13.624;2023-02-14T09:27:01;11.52;;;5.35;;
52041;SDS011;38052;45.944;13.624;2023-02-14T09:29:27;8.20;;;4.45;;
52041;SDS011;38052;45.944;13.624;2023-02-14T09:31:57;37.78;;;7.97;;
52041;SDS011;38052;45.944;13.624;2023-02-14T09:34:25;11.52;;;4.32;;
52041;SDS011;38052;45.944;13.624;2023-02-14T09:36:51;9.13;;;5.13;;
52041;SDS011;38052;45.944;13.624;2023-02-14T09:39:18;9.48;;;5.30;;
52041;SDS011;38052;45.944;13.624;2023-02-14T09:45:12;8.95;;;5.35;;
52041;SDS011;38052;45.944;13.624;2023-02-14T09:49:48;9.25;;;5.32;;
52041;SDS011;38052;45.944;13.624;2023-02-14T09:52:15;9.38;;;5.13;;
52041;SDS011;38052;45.944;13.624;2023-02-14T09:54:44;10.15;;;5.72;;
52041;SDS011;38052;45.944;13.624;2023-02-14T09:59:52;14.10;;;6.72;;
52041;SDS011;38052;45.944;13.624;2023-02-14T10:12:34;18.75;;;8.13;;
52041;SDS011;38052;45.944;13.624;2023-02-14T10:15:09;14.85;;;8.00;;
52041;SDS011;38052;45.944;13.624;2023-02-14T10:17:45;10.85;;;7.28;;
52041;SDS011;38052;45.944;13.624;2023-02-14T10:25:58;11.55;;;6.50;;
52041;SDS011;38052;45.944;13.624;2023-02-14T10:28:36;9.80;;;6.32;;
52041;SDS011;38052;45.944;13.624;2023-02-14T10:34:00;10.40;;;7.15;;
52041;SDS011;38052;45.944;13.624;2023-02-14T10:44:09;13.38;;;8.20;;
52041;SDS011;38052;45.944;13.624;2023-02-14T10:46:39;15.13;;;6.75;;
52041;SDS011;38052;45.944;13.624;2023-02-14T10:49:29;11.75;;;7.40;;
52041;SDS011;38052;45.944;13.624;2023-02-14T10:52:05;10.18;;;7.35;;
52041;SDS011;38052;45.944;13.624;2023-02-14T10:54:35;14.48;;;8.07;;
52041;SDS011;38052;45.944;13.624;2023-02-14T11:02:14;11.70;;;6.90;;
52041;SDS011;38052;45.944;13.624;2023-02-14T11:04:41;12.38;;;7.90;;
52041;SDS011;38052;45.944;13.624;2023-02-14T11:07:15;12.50;;;7.82;;
52041;SDS011;38052;45.944;13.624;2023-02-14T11:09:42;12.93;;;7.32;;
52041;SDS011;38052;45.944;13.624;2023-02-14T11:12:08;15.45;;;8.13;;
52041;SDS011;38052;45.944;13.624;2023-02-14T11:14:38;14.45;;;6.85;;
52041;SDS011;38052;45.944;13.624;2023-02-14T11:19:57;11.98;;;7.32;;
52041;SDS011;38052;45.944;13.624;2023-02-14T11:22:30;11.93;;;7.68;;
52041;SDS011;38052;45.944;13.624;2023-02-14T11:25:06;11.63;;;7.05;;
52041;SDS011;38052;45.944;13.624;2023-02-14T11:27:33;12.32;;;6.93;;
52041;SDS011;38052;45.944;13.624;2023-02-14T11:30:00;12.20;;;7.07;;
52041;SDS011;38052;45.944;13.624;2023-02-14T11:32:27;13.07;;;6.65;;
52041;SDS011;38052;45.944;13.624;2023-02-14T11:35:04;24.75;;;8.00;;
52041;SDS011;38052;45.944;13.624;2023-02-14T11:37:51;11.02;;;7.00;;
52041;SDS011;38052;45.944;13.624;2023-02-14T11:40:28;14.85;;;7.00;;
52041;SDS011;38052;45.944;13.624;2023-02-14T11:42:56;11.70;;;7.25;;
52041;SDS011;38052;45.944;13.624;2023-02-14T11:45:32;11.68;;;6.35;;
52041;SDS011;38052;45.944;13.624;2023-02-14T11:51:05;9.98;;;5.75;;
52041;SDS011;38052;45.944;13.624;2023-02-14T11:56:05;6.88;;;4.65;;
52041;SDS011;38052;45.944;13.624;2023-02-14T12:01:00;9.23;;;4.25;;
52041;SDS011;38052;45.944;13.624;2023-02-14T12:03:27;7.70;;;4.40;;
52041;SDS011;38052;45.944;13.624;2023-02-14T12:05:54;7.15;;;4.57;;
52041;SDS011;38052;45.944;13.624;2023-02-14T12:08:25;10.07;;;4.83;;
52041;SDS011;38052;45.944;13.624;2023-02-14T12:11:01;14.35;;;6.38;;
52041;SDS011;38052;45.944;13.624;2023-02-14T12:13:27;10.00;;;4.57;;
52041;SDS011;38052;45.944;13.624;2023-02-14T12:15:55;8.90;;;5.70;;
52041;SDS011;38052;45.944;13.624;2023-02-14T12:21:09;10.20;;;5.30;;
52041;SDS011;38052;45.944;13.624;2023-02-14T12:26:35;9.23;;;5.95;;
52041;SDS011;38052;45.944;13.624;2023-02-14T12:31:33;8.55;;;5.35;;
52041;SDS011;38052;45.944;13.624;2023-02-14T12:33:59;10.02;;;6.18;;
52041;SDS011;38052;45.944;13.624;2023-02-14T12:36:32;9.55;;;5.78;;
52041;SDS011;38052;45.944;13.624;2023-02-14T12:46:43;9.10;;;6.60;;
52041;SDS011;38052;45.944;13.624;2023-02-14T12:55:11;13.02;;;8.43;;
52041;SDS011;38052;45.944;13.624;2023-02-14T13:00:10;12.02;;;7.82;;
52041;SDS011;38052;45.944;13.624;2023-02-14T13:03:14;12.25;;;7.80;;
52041;SDS011;38052;45.944;13.624;2023-02-14T13:18:52;14.18;;;8.20;;
52041;SDS011;38052;45.944;13.624;2023-02-14T13:21:21;15.85;;;9.52;;
52041;SDS011;38052;45.944;13.624;2023-02-14T13:23:50;21.13;;;10.75;;
52041;SDS011;38052;45.944;13.624;2023-02-14T13:26:19;19.35;;;10.30;;
52041;SDS011;38052;45.944;13.624;2023-02-14T13:28:48;13.63;;;9.55;;
52041;SDS011;38052;45.944;13.624;2023-02-14T13:31:16;14.75;;;10.20;;
52041;SDS011;38052;45.944;13.624;2023-02-14T13:33:43;15.60;;;9.30;;
52041;SDS011;38052;45.944;13.624;2023-02-14T13:36:11;16.50;;;9.73;;
52041;SDS011;38052;45.944;13.624;2023-02-14T13:38:46;15.98;;;9.63;;
52041;SDS011;38052;45.944;13.624;2023-02-14T13:41:13;16.13;;;9.77;;
52041;SDS011;38052;45.944;13.624;2023-02-14T13:46:10;14.65;;;9.27;;
52041;SDS011;38052;45.944;13.624;2023-02-14T13:48:36;14.27;;;9.75;;
52041;SDS011;38052;45.944;13.624;2023-02-14T13:51:03;16.48;;;10.02;;
52041;SDS011;38052;45.944;13.624;2023-02-14T13:55:56;16.45;;;10.00;;
52041;SDS011;38052;45.944;13.624;2023-02-14T13:58:23;15.38;;;9.95;;
52041;SDS011;38052;45.944;13.624;2023-02-14T14:00:51;14.02;;;8.65;;
52041;SDS011;38052;45.944;13.624;2023-02-14T14:06:03;13.98;;;9.02;;
52041;SDS011;38052;45.944;13.624;2023-02-14T14:10:57;16.48;;;9.57;;
52041;SDS011;38052;45.944;13.624;2023-02-14T14:18:51;13.25;;;8.70;;
52041;SDS011;38052;45.944;13.624;2023-02-14T14:21:24;11.90;;;7.78;;
52041;SDS011;38052;45.944;13.624;2023-02-14T14:26:38;16.33;;;9.10;;
52041;SDS011;38052;45.944;13.624;2023-02-14T14:29:18;15.35;;;8.02;;
52041;SDS011;38052;45.944;13.624;2023-02-14T14:31:46;18.40;;;8.77;;
52041;SDS011;38052;45.944;13.624;2023-02-14T14:34:19;15.02;;;9.07;;
52041;SDS011;38052;45.944;13.624;2023-02-14T14:36:45;14.45;;;9.30;;
52041;SDS011;38052;45.944;13.624;2023-02-14T14:39:11;16.15;;;8.88;;
52041;SDS011;38052;45.944;13.624;2023-02-14T14:41:38;19.50;;;9.05;;
52041;SDS011;38052;45.944;13.624;2023-02-14T14:44:05;20.23;;;10.18;;
52041;SDS011;38052;45.944;13.624;2023-02-14T14:46:32;19.13;;;10.32;;
52041;SDS011;38052;45.944;13.624;2023-02-14T14:48:58;15.73;;;8.90;;
52041;SDS011;38052;45.944;13.624;2023-02-14T14:51:27;14.02;;;9.63;;
52041;SDS011;38052;45.944;13.624;2023-02-14T14:53:55;13.95;;;8.82;;
52041;SDS011;38052;45.944;13.624;2023-02-14T14:56:24;18.08;;;9.32;;
52041;SDS011;38052;45.944;13.624;2023-02-14T14:58:50;18.08;;;10.00;;
52041;SDS011;38052;45.944;13.624;2023-02-14T15:01:31;18.85;;;9.70;;
52041;SDS011;38052;45.944;13.624;2023-02-14T15:04:10;13.63;;;9.13;;
52041;SDS011;38052;45.944;13.624;2023-02-14T15:06:37;16.27;;;10.18;;
52041;SDS011;38052;45.944;13.624;2023-02-14T15:09:10;14.63;;;9.70;;
52041;SDS011;38052;45.944;13.624;2023-02-14T15:11:37;14.30;;;9.90;;
52041;SDS011;38052;45.944;13.624;2023-02-14T15:14:23;17.05;;;9.73;;
52041;SDS011;38052;45.944;13.624;2023-02-14T15:19:22;16.42;;;9.63;;
52041;SDS011;38052;45.944;13.624;2023-02-14T15:21:50;15.15;;;10.45;;
52041;SDS011;38052;45.944;13.624;2023-02-14T15:24:17;20.00;;;10.45;;
52041;SDS011;38052;45.944;13.624;2023-02-14T15:26:45;17.40;;;10.88;;
52041;SDS011;38052;45.944;13.624;2023-02-14T15:29:21;17.25;;;11.10;;
52041;SDS011;38052;45.944;13.624;2023-02-14T15:31:48;19.65;;;10.38;;
52041;SDS011;38052;45.944;13.624;2023-02-14T15:34:15;17.85;;;10.23;;
52041;SDS011;38052;45.944;13.624;2023-02-14T15:36:42;17.20;;;11.10;;
52041;SDS011;38052;45.944;13.624;2023-02-14T15:39:16;23.30;;;11.45;;
52041;SDS011;38052;45.944;13.624;2023-02-14T15:41:43;17.35;;;10.75;;
52041;SDS011;38052;45.944;13.624;2023-02-14T15:44:20;17.90;;;10.80;;
52041;SDS011;38052;45.944;13.624;2023-02-14T15:46:46;16.52;;;10.30;;
52041;SDS011;38052;45.944;13.624;2023-02-14T15:49:17;21.23;;;10.68;;
52041;SDS011;38052;45.944;13.624;2023-02-14T15:51:46;19.33;;;10.93;;
52041;SDS011;38052;45.944;13.624;2023-02-14T15:56:45;19.27;;;11.05;;
52041;SDS011;38052;45.944;13.624;2023-02-14T15:59:28;20.70;;;12.68;;
52041;SDS011;38052;45.944;13.624;2023-02-14T16:04:28;23.55;;;12.10;;
52041;SDS011;38052;45.944;13.624;2023-02-14T16:09:23;21.08;;;12.88;;
52041;SDS011;38052;45.944;13.624;2023-02-14T16:11:49;22.67;;;12.82;;
52041;SDS011;38052;45.944;13.624;2023-02-14T16:14:30;21.80;;;12.35;;
52041;SDS011;38052;45.944;13.624;2023-02-14T16:17:06;21.67;;;13.48;;
52041;SDS011;38052;45.944;13.624;2023-02-14T16:19:34;24.55;;;14.50;;
52041;SDS011;38052;45.944;13.624;2023-02-14T16:22:00;25.42;;;14.15;;
52041;SDS011;38052;45.944;13.624;2023-02-14T16:24:26;22.42;;;14.30;;
52041;SDS011;38052;45.944;13.624;2023-02-14T16:26:53;22.48;;;13.60;;
52041;SDS011;38052;45.944;13.624;2023-02-14T16:29:20;28.92;;;14.98;;
52041;SDS011;38052;45.944;13.624;2023-02-14T16:31:50;23.70;;;13.73;;
52041;SDS011;38052;45.944;13.624;2023-02-14T16:34:17;23.95;;;14.23;;
52041;SDS011;38052;45.944;13.624;2023-02-14T16:36:43;31.30;;;15.65;;
52041;SDS011;38052;45.944;13.624;2023-02-14T16:39:11;25.77;;;15.95;;
52041;SDS011;38052;45.944;13.624;2023-02-14T16:41:41;30.42;;;17.15;;
52041;SDS011;38052;45.944;13.624;2023-02-14T16:44:11;32.47;;;17.63;;
52041;SDS011;38052;45.944;13.624;2023-02-14T16:46:37;24.48;;;15.57;;
52041;SDS011;38052;45.944;13.624;2023-02-14T16:49:03;24.88;;;16.70;;
52041;SDS011;38052;45.944;13.624;2023-02-14T16:51:30;24.08;;;15.65;;
52041;SDS011;38052;45.944;13.624;2023-02-14T16:53:58;29.35;;;17.45;;
52041;SDS011;38052;45.944;13.624;2023-02-14T16:56:27;30.50;;;16.58;;
52041;SDS011;38052;45.944;13.624;2023-02-14T16:58:54;29.00;;;18.30;;
52041;SDS011;38052;45.944;13.624;2023-02-14T17:01:24;36.40;;;19.25;;
52041;SDS011;38052;45.944;13.624;2023-02-14T17:03:50;32.50;;;18.77;;
52041;SDS011;38052;45.944;13.624;2023-02-14T17:06:19;33.28;;;18.85;;
52041;SDS011;38052;45.944;13.624;2023-02-14T17:08:47;31.55;;;20.73;;
52041;SDS011;38052;45.944;13.624;2023-02-14T17:11:15;34.28;;;21.30;;
52041;SDS011;38052;45.944;13.624;2023-02-14T17:13:41;34.83;;;20.33;;
52041;SDS011;38052;45.944;13.624;2023-02-14T17:16:08;30.92;;;21.85;;
52041;SDS011;38052;45.944;13.624;2023-02-14T17:18:35;40.95;;;22.88;;